createdAt,value
2019-04-10T00:00:35.115Z,60.77
2019-04-10T00:03:06.553Z,55.67
2019-04-10T00:05:36.084Z,54.77
2019-04-10T00:08:06.032Z,57.13
2019-04-10T00:10:36.115Z,59.80
2019-04-10T00:13:04.902Z,53.43
2019-04-10T00:15:33.307Z,55.43
2019-04-10T00:18:01.973Z,62.07
2019-04-10T00:20:30.538Z,56.33
2019-04-10T00:22:58.953Z,55.23
2019-04-10T00:25:27.380Z,68.23
2019-04-10T00:27:55.859Z,58.43
2019-04-10T00:30:25.073Z,56.87
2019-04-10T00:32:54.411Z,61.77
2019-04-10T00:35:23.545Z,63.40
2019-04-10T00:37:53.334Z,63.53
2019-04-10T00:40:21.882Z,66.67
2019-04-10T00:42:50.304Z,63.20
2019-04-10T00:45:19.494Z,63.00
2019-04-10T00:47:47.904Z,64.90
2019-04-10T00:50:16.320Z,66.07
2019-04-10T00:52:44.725Z,62.90
2019-04-10T00:55:13.309Z,64.17
2019-04-10T00:57:41.698Z,65.73
2019-04-10T01:00:10.875Z,65.37
2019-04-10T01:02:39.302Z,72.17
2019-04-10T01:05:07.730Z,67.47
2019-04-10T01:07:40.147Z,69.90
2019-04-10T01:10:08.168Z,66.00
2019-04-10T01:12:37.098Z,65.80
2019-04-10T01:15:06.886Z,66.27
2019-04-10T01:17:35.302Z,69.93
2019-04-10T01:20:05.740Z,63.13
2019-04-10T01:22:35.053Z,64.30
2019-04-10T01:25:04.386Z,66.37
2019-04-10T01:27:32.812Z,64.53
2019-04-10T01:30:02.365Z,68.53
2019-04-10T01:32:32.719Z,68.50
2019-04-10T01:35:02.421Z,66.23
2019-04-10T01:37:31.048Z,64.40
2019-04-10T01:40:07.029Z,62.73
2019-04-10T01:42:36.843Z,64.03
2019-04-10T01:45:09.020Z,70.47
2019-04-10T01:47:37.752Z,65.63
2019-04-10T01:50:06.443Z,63.97
2019-04-10T01:52:35.351Z,62.27
2019-04-10T01:55:19.120Z,73.27
2019-04-10T01:57:34.937Z,64.50
2019-04-10T02:00:05.457Z,70.57
2019-04-10T02:02:35.518Z,66.90
2019-04-10T02:05:06.029Z,64.20
2019-04-10T02:07:34.657Z,68.97
2019-04-10T02:10:03.735Z,62.98
2019-04-10T02:12:32.604Z,59.30
2019-04-10T02:15:01.147Z,61.63
2019-04-10T02:17:30.706Z,62.40
2019-04-10T02:19:59.401Z,63.67
2019-04-10T02:22:28.729Z,66.03
2019-04-10T02:24:57.722Z,58.43
2019-04-10T02:27:26.738Z,64.80
2019-04-10T02:29:55.773Z,63.40
2019-04-10T02:32:24.329Z,59.33
2019-04-10T02:34:53.212Z,66.35
2019-04-10T02:37:22.881Z,59.20
2019-04-10T02:39:54.504Z,58.03
2019-04-10T02:42:22.561Z,63.78
2019-04-10T02:44:52.094Z,66.17
2019-04-10T02:47:21.251Z,62.93
2019-04-10T02:49:50.267Z,56.30
2019-04-10T02:52:20.225Z,62.60
2019-04-10T02:55:23.078Z,61.47
2019-04-10T03:01:09.240Z,64.63
2019-04-10T03:03:38.484Z,58.67
2019-04-10T03:06:07.792Z,63.57
2019-04-10T03:08:54.967Z,64.53
2019-04-10T03:11:11.532Z,64.83
2019-04-10T03:13:38.250Z,63.50
2019-04-10T03:16:07.549Z,67.87
2019-04-10T03:18:36.851Z,63.10
2019-04-10T03:21:05.409Z,66.40
2019-04-10T03:23:33.829Z,71.30
2019-04-10T03:26:03.525Z,71.67
2019-04-10T03:28:33.253Z,66.40
2019-04-10T03:31:03.475Z,64.55
2019-04-10T03:33:37.568Z,70.13
2019-04-10T03:36:05.293Z,71.67
2019-04-10T03:38:34.276Z,67.70
2019-04-10T03:41:03.996Z,78.60
2019-04-10T03:43:32.622Z,67.58
2019-04-10T03:46:01.280Z,71.67
2019-04-10T03:48:29.952Z,68.63
2019-04-10T03:50:58.700Z,70.67
2019-04-10T03:53:34.069Z,72.53
2019-04-10T03:56:02.558Z,72.00
2019-04-10T03:58:31.521Z,70.50
2019-04-10T04:01:00.711Z,71.77
2019-04-10T04:03:29.310Z,71.10
2019-04-10T04:05:57.715Z,76.02
2019-04-10T04:08:26.153Z,74.35
2019-04-10T04:10:55.201Z,74.73
2019-04-10T04:13:24.142Z,76.50
2019-04-10T04:15:52.659Z,76.50
2019-04-10T04:18:21.412Z,77.97
2019-04-10T04:20:51.048Z,75.62
2019-04-10T04:23:19.633Z,71.90
2019-04-10T04:25:48.358Z,72.80
2019-04-10T04:28:17.070Z,72.97
2019-04-10T04:30:45.721Z,78.27
2019-04-10T04:33:15.338Z,74.67
2019-04-10T04:35:43.897Z,73.30
2019-04-10T04:38:13.349Z,64.30
2019-04-10T04:40:42.095Z,72.90
2019-04-10T04:43:10.522Z,70.20
2019-04-10T04:45:39.212Z,63.40
2019-04-10T04:48:07.823Z,65.25
2019-04-10T04:50:36.320Z,62.10
2019-04-10T04:53:04.766Z,62.62
2019-04-10T04:55:33.213Z,60.52
2019-04-10T04:58:01.951Z,59.53
2019-04-10T05:00:30.473Z,54.80
2019-04-10T05:02:59.792Z,61.95
2019-04-10T05:05:29.300Z,53.30
2019-04-10T05:08:02.491Z,56.20
2019-04-10T05:10:28.028Z,52.50
2019-04-10T05:12:57.850Z,52.80
2019-04-10T05:15:26.968Z,54.08
2019-04-10T05:17:57.630Z,52.13
2019-04-10T05:20:40.302Z,47.95
2019-04-10T05:22:57.622Z,51.90
2019-04-10T05:25:27.045Z,50.20
2019-04-10T05:27:55.793Z,49.85
2019-04-10T05:30:25.065Z,45.67
2019-04-10T05:32:53.615Z,50.48
2019-04-10T05:35:22.104Z,52.93
2019-04-10T05:37:50.550Z,59.33
2019-04-10T05:40:19.633Z,45.33
2019-04-10T05:42:49.133Z,50.33
2019-04-10T05:45:17.721Z,49.40
2019-04-10T05:47:46.595Z,52.13
2019-04-10T05:50:15.219Z,46.68
2019-04-10T05:52:43.655Z,47.33
2019-04-10T05:55:12.236Z,44.33
2019-04-10T05:57:40.698Z,46.37
2019-04-10T06:00:10.419Z,49.42
2019-04-10T06:02:39.804Z,47.37
2019-04-10T06:05:09.740Z,45.55
2019-04-10T06:07:38.377Z,49.00
2019-04-10T06:10:10.663Z,45.95
2019-04-10T06:12:38.883Z,47.00
2019-04-10T06:15:08.600Z,47.62
2019-04-10T06:17:38.485Z,43.23
2019-04-10T06:20:09.041Z,46.85
2019-04-10T06:22:38.785Z,50.43
2019-04-10T06:25:10.623Z,45.65
2019-04-10T06:27:38.872Z,50.90
2019-04-10T06:30:08.309Z,43.65
2019-04-10T06:32:37.747Z,49.25
2019-04-10T06:35:08.149Z,45.45
2019-04-10T06:37:37.896Z,47.75
2019-04-10T06:40:14.282Z,45.80
2019-04-10T06:42:46.459Z,46.40
2019-04-10T06:45:09.298Z,48.90
2019-04-10T06:47:38.466Z,48.00
2019-04-10T06:50:07.588Z,44.33
2019-04-10T06:52:36.069Z,48.78
2019-04-10T06:55:05.759Z,51.10
2019-04-10T06:57:48.082Z,45.70
2019-04-10T07:00:12.121Z,49.08
2019-04-10T07:02:38.944Z,47.93
2019-04-10T07:05:10.521Z,52.13
2019-04-10T07:07:49.573Z,48.58
2019-04-10T07:10:20.218Z,47.85
2019-04-10T07:12:39.719Z,44.23
2019-04-10T07:15:10.548Z,49.00
2019-04-10T07:17:41.032Z,46.35
2019-04-10T07:20:09.668Z,45.65
2019-04-10T07:22:42.213Z,45.77
2019-04-10T07:25:10.381Z,52.05
2019-04-10T07:27:40.201Z,54.63
2019-04-10T07:30:09.804Z,47.23
2019-04-10T07:32:42.058Z,46.67
2019-04-10T07:35:08.948Z,42.03
2019-04-10T07:37:37.515Z,47.60
2019-04-10T07:40:08.009Z,46.93
2019-04-10T07:42:39.831Z,45.20
2019-04-10T07:45:08.023Z,47.17
2019-04-10T07:47:37.880Z,42.83
2019-04-10T07:50:08.749Z,43.60
2019-04-10T07:52:37.422Z,45.33
2019-04-10T07:55:06.588Z,47.50
2019-04-10T07:57:36.292Z,42.57
2019-04-10T08:00:09.037Z,42.13
2019-04-10T08:02:38.515Z,42.90
2019-04-10T08:05:08.193Z,46.90
2019-04-10T08:07:38.796Z,39.10
2019-04-10T08:10:08.038Z,42.20
2019-04-10T08:12:43.264Z,43.10
2019-04-10T08:15:07.406Z,41.80
2019-04-10T08:17:36.856Z,45.53
2019-04-10T08:20:05.975Z,45.27
2019-04-10T08:22:34.954Z,44.43
2019-04-10T08:25:05.004Z,49.07
2019-04-10T08:27:34.165Z,46.77
2019-04-10T08:30:03.312Z,47.00
2019-04-10T08:32:40.534Z,44.07
2019-04-10T08:35:02.589Z,45.40
2019-04-10T08:37:31.052Z,46.70
2019-04-10T08:39:59.886Z,49.50
2019-04-10T08:42:28.324Z,41.30
2019-04-10T08:44:57.168Z,45.23
2019-04-10T08:47:25.578Z,42.37
2019-04-10T08:49:57.616Z,47.37
2019-04-10T08:52:26.264Z,45.80
2019-04-10T08:54:54.773Z,44.60
2019-04-10T08:57:23.200Z,48.97
2019-04-10T08:59:52.041Z,49.27
2019-04-10T09:02:20.609Z,45.57
2019-04-10T09:04:49.102Z,48.97
2019-04-10T09:07:17.608Z,47.93
2019-04-10T09:09:46.037Z,49.60
2019-04-10T09:12:15.754Z,48.70
2019-04-10T09:14:45.396Z,52.17
2019-04-10T09:17:13.923Z,46.87
2019-04-10T09:19:42.359Z,43.13
2019-04-10T09:22:10.797Z,47.60
2019-04-10T09:24:39.292Z,44.67
2019-04-10T09:27:08.645Z,42.03
2019-04-10T09:29:38.209Z,45.53
2019-04-10T09:32:06.721Z,48.37
2019-04-10T09:34:35.998Z,45.47
2019-04-10T09:37:05.798Z,48.50
2019-04-10T09:39:34.528Z,43.10
2019-04-10T09:42:03.355Z,46.57
2019-04-10T09:44:32.030Z,48.23
2019-04-10T09:47:00.447Z,49.57
2019-04-10T09:49:35.696Z,52.93
2019-04-10T09:51:58.993Z,53.77
2019-04-10T09:54:28.144Z,50.63
2019-04-10T09:56:57.127Z,48.70
2019-04-10T09:59:32.922Z,54.63
2019-04-10T10:02:09.289Z,48.97
2019-04-10T10:04:55.710Z,47.83
2019-04-10T10:07:24.505Z,45.20
2019-04-10T10:09:53.000Z,45.77
2019-04-10T10:12:21.410Z,48.10
2019-04-10T10:14:49.842Z,52.70
2019-04-10T10:17:18.261Z,47.50
2019-04-10T10:19:46.706Z,53.77
2019-04-10T10:22:15.194Z,49.97
2019-04-10T10:24:43.697Z,59.83
2019-04-10T10:27:12.152Z,49.20
2019-04-10T10:29:40.560Z,51.73
2019-04-10T10:32:09.390Z,52.70
2019-04-10T10:34:38.746Z,49.93
2019-04-10T10:37:10.456Z,53.27
2019-04-10T10:39:39.315Z,53.40
2019-04-10T10:42:07.905Z,59.63
2019-04-10T10:44:36.393Z,52.70
2019-04-10T10:47:06.161Z,52.67
2019-04-10T10:49:34.859Z,54.23
2019-04-10T10:52:03.510Z,53.23
2019-04-10T10:54:32.660Z,58.80
2019-04-10T10:57:01.326Z,56.93
2019-04-10T10:59:29.756Z,52.93
2019-04-10T11:01:58.235Z,59.60
2019-04-10T11:04:27.400Z,53.13
2019-04-10T11:07:00.452Z,55.77
2019-04-10T11:09:26.249Z,50.20
2019-04-10T11:11:55.974Z,53.90
2019-04-10T11:14:25.333Z,59.60
2019-04-10T11:16:56.114Z,55.43
2019-04-10T11:19:24.403Z,61.57
2019-04-10T11:21:54.442Z,55.90
2019-04-10T11:24:23.294Z,54.47
2019-04-10T11:26:51.986Z,52.87
2019-04-10T11:29:22.038Z,56.13
2019-04-10T11:31:50.532Z,58.73
2019-04-10T11:34:19.240Z,55.80
2019-04-10T11:36:50.938Z,59.37
2019-04-10T11:39:24.284Z,55.37
2019-04-10T11:41:50.033Z,58.00
2019-04-10T11:44:20.315Z,50.13
2019-04-10T11:46:49.471Z,50.13
2019-04-10T11:49:20.195Z,54.27
2019-04-10T11:51:50.349Z,57.70
2019-04-10T11:54:23.509Z,58.00
2019-04-10T11:56:49.180Z,58.50
2019-04-10T11:59:22.037Z,55.93
2019-04-10T12:01:53.095Z,54.50
2019-04-10T12:04:20.051Z,61.60
2019-04-10T12:06:52.264Z,61.30
2019-04-10T12:10:00.114Z,58.30
2019-04-10T12:11:49.028Z,64.30
2019-04-10T12:14:17.680Z,55.73
2019-04-10T12:16:46.098Z,57.47
2019-04-10T12:19:15.204Z,51.40
2019-04-10T12:21:44.208Z,57.40
2019-04-10T12:24:12.777Z,55.10
2019-04-10T12:26:42.258Z,54.60
2019-04-10T12:29:11.278Z,58.27
2019-04-10T12:31:39.816Z,55.30
2019-04-10T12:34:08.825Z,59.50
2019-04-10T12:36:38.475Z,58.43
2019-04-10T12:39:09.192Z,55.63
2019-04-10T12:41:37.739Z,54.63
2019-04-10T12:44:07.502Z,58.83
2019-04-10T12:46:36.028Z,56.30
2019-04-10T12:49:05.362Z,60.47
2019-04-10T12:51:34.919Z,59.30
2019-04-10T12:54:04.626Z,62.07
2019-04-10T12:56:33.151Z,61.00
2019-04-10T12:59:01.544Z,57.00
2019-04-10T13:01:30.981Z,59.03
2019-04-10T13:03:59.927Z,62.60
2019-04-10T13:06:29.652Z,59.20
2019-04-10T13:09:07.350Z,59.70
2019-04-10T13:11:28.999Z,56.63
2019-04-10T13:13:58.211Z,55.50
2019-04-10T13:16:27.896Z,56.23
2019-04-10T13:18:56.546Z,53.90
2019-04-10T13:21:25.096Z,52.93
2019-04-10T13:23:53.520Z,60.50
2019-04-10T13:26:22.170Z,59.90
2019-04-10T13:28:51.783Z,51.40
2019-04-10T13:31:21.421Z,51.60
2019-04-10T13:33:51.046Z,55.70
2019-04-10T13:36:19.712Z,55.47
2019-04-10T13:38:48.539Z,55.83
2019-04-10T13:41:17.016Z,56.63
2019-04-10T13:43:46.375Z,59.73
2019-04-10T13:46:14.917Z,56.03
2019-04-10T13:48:43.357Z,56.40
2019-04-10T13:51:13.009Z,55.10
2019-04-10T13:53:41.990Z,54.90
2019-04-10T13:56:10.433Z,59.20
2019-04-10T13:58:40.196Z,56.50
2019-04-10T14:01:11.268Z,58.43
2019-04-10T14:03:42.295Z,59.73
2019-04-10T14:06:11.620Z,57.63
2019-04-10T14:08:58.720Z,59.13
2019-04-10T14:11:11.124Z,55.40
2019-04-10T14:13:40.035Z,57.63
2019-04-10T14:16:08.658Z,57.13
2019-04-10T14:18:37.130Z,59.03
2019-04-10T14:21:11.044Z,53.67
2019-04-10T14:23:37.344Z,62.60
2019-04-10T14:26:08.553Z,57.80
2019-04-10T14:28:37.506Z,53.90
2019-04-10T14:31:09.609Z,48.07
2019-04-10T14:33:45.196Z,59.77
2019-04-10T14:36:13.849Z,57.17
2019-04-10T14:38:43.286Z,58.17
2019-04-10T14:41:13.641Z,56.47
2019-04-10T14:43:43.850Z,61.97
2019-04-10T14:46:12.497Z,54.63
2019-04-10T14:48:40.938Z,52.60
2019-04-10T14:51:10.252Z,62.43
2019-04-10T14:53:39.399Z,55.40
2019-04-10T14:56:08.287Z,52.10
2019-04-10T14:58:37.522Z,51.60
2019-04-10T15:01:08.168Z,51.27
2019-04-10T15:03:36.238Z,55.20
2019-04-10T15:06:05.084Z,59.77
2019-04-10T15:08:33.653Z,53.97
2019-04-10T15:11:02.459Z,49.80
2019-04-10T15:13:31.836Z,63.10
2019-04-10T15:16:00.866Z,53.60
2019-04-10T15:18:29.453Z,55.33
2019-04-10T15:20:58.588Z,58.80
2019-04-10T15:23:27.506Z,50.80
2019-04-10T15:25:57.321Z,53.20
2019-04-10T15:28:26.122Z,56.17
2019-04-10T15:30:55.028Z,51.50
2019-04-10T15:33:24.643Z,55.57
2019-04-10T15:35:53.396Z,51.57
2019-04-10T15:38:22.057Z,52.73
2019-04-10T15:40:50.590Z,60.23
2019-04-10T15:43:19.078Z,52.87
2019-04-10T15:45:48.386Z,61.67
2019-04-10T15:48:17.177Z,64.10
2019-04-10T15:50:45.662Z,69.63
2019-04-10T15:53:14.181Z,61.03
2019-04-10T15:55:42.617Z,59.03
2019-04-10T15:58:11.346Z,55.20
2019-04-10T16:00:39.808Z,59.60
2019-04-10T16:03:09.173Z,57.20
2019-04-10T16:05:37.734Z,52.13
2019-04-10T16:08:06.190Z,57.10
2019-04-10T16:10:53.007Z,57.57
2019-04-10T16:13:36.653Z,53.53
2019-04-10T16:16:07.347Z,56.63
2019-04-10T16:18:36.693Z,60.27
2019-04-10T16:21:06.284Z,49.23
2019-04-10T16:23:42.212Z,50.70
2019-04-10T16:26:11.135Z,49.37
2019-04-10T16:28:40.065Z,57.20
2019-04-10T16:31:08.550Z,55.70
2019-04-10T16:33:36.997Z,55.73
2019-04-10T16:36:05.413Z,50.57
2019-04-10T16:38:33.899Z,48.70
2019-04-10T16:41:02.678Z,57.03
2019-04-10T16:43:31.285Z,55.63
2019-04-10T16:45:59.740Z,55.33
2019-04-10T16:48:28.288Z,55.73
2019-04-10T16:50:56.976Z,56.37
2019-04-10T16:53:25.731Z,56.57
2019-04-10T16:55:54.509Z,60.27
2019-04-10T16:58:23.483Z,57.90
2019-04-10T17:00:52.041Z,53.87
2019-04-10T17:03:20.485Z,59.20
2019-04-10T17:05:50.003Z,56.87
2019-04-10T17:08:19.610Z,57.10
2019-04-10T17:10:48.379Z,60.33
2019-04-10T17:13:16.897Z,60.53
2019-04-10T17:15:45.393Z,54.83
2019-04-10T17:18:14.844Z,53.63
2019-04-10T17:20:44.601Z,60.33
2019-04-10T17:23:13.602Z,60.87
2019-04-10T17:25:42.333Z,59.07
2019-04-10T17:28:12.204Z,61.17
2019-04-10T17:30:42.172Z,57.50
2019-04-10T17:33:11.085Z,57.43
2019-04-10T17:35:40.017Z,57.63
2019-04-10T17:38:10.051Z,59.43
2019-04-10T17:40:47.740Z,59.50
2019-04-10T17:43:08.858Z,55.23
2019-04-10T17:45:38.566Z,58.00
2019-04-10T17:48:07.710Z,60.40
2019-04-10T17:50:37.271Z,58.37
2019-04-10T17:53:07.266Z,60.90
2019-04-10T17:55:35.795Z,56.63
2019-04-10T17:58:05.328Z,59.10
2019-04-10T18:00:35.622Z,62.20
2019-04-10T18:03:05.319Z,66.15
2019-04-10T18:05:34.915Z,60.25
2019-04-10T18:08:05.019Z,57.83
2019-04-10T18:10:43.570Z,60.50
2019-04-10T18:13:05.146Z,65.33
2019-04-10T18:15:33.767Z,57.80
2019-04-10T18:18:03.271Z,61.83
2019-04-10T18:20:31.893Z,61.80
2019-04-10T18:23:00.927Z,57.75
2019-04-10T18:25:29.768Z,64.80
2019-04-10T18:27:58.513Z,55.67
2019-04-10T18:30:27.989Z,65.07
2019-04-10T18:32:56.627Z,58.37
2019-04-10T18:35:25.042Z,63.40
2019-04-10T18:37:53.606Z,60.83
2019-04-10T18:40:23.246Z,64.27
2019-04-10T18:42:56.025Z,58.83
2019-04-10T18:45:23.883Z,65.60
2019-04-10T18:47:52.459Z,63.63
2019-04-10T18:50:20.889Z,59.33
2019-04-10T18:52:49.733Z,59.05
2019-04-10T18:55:18.375Z,60.67
2019-04-10T18:57:47.291Z,68.53
2019-04-10T19:00:34.450Z,61.45
2019-04-10T19:03:23.553Z,58.43
2019-04-10T19:06:03.175Z,64.27
2019-04-10T19:08:32.166Z,60.30
2019-04-10T19:11:16.928Z,63.45
2019-04-10T19:13:31.310Z,55.73
2019-04-10T19:16:01.283Z,60.70
2019-04-10T19:18:29.946Z,67.12
2019-04-10T19:21:00.134Z,61.23
2019-04-10T19:23:29.104Z,63.02
2019-04-10T19:25:58.883Z,56.75
2019-04-10T19:28:32.012Z,55.83
2019-04-10T19:31:08.706Z,54.88
2019-04-10T19:33:29.331Z,57.83
2019-04-10T19:35:57.769Z,55.80
2019-04-10T19:38:27.380Z,61.77
2019-04-10T19:40:56.337Z,58.87
2019-04-10T19:43:27.489Z,56.58
2019-04-10T19:45:55.010Z,55.05
2019-04-10T19:48:23.760Z,59.23
2019-04-10T19:50:52.652Z,63.35
2019-04-10T19:53:21.396Z,56.80
2019-04-10T19:55:49.880Z,57.43
2019-04-10T19:58:18.308Z,51.95
2019-04-10T20:00:47.100Z,55.50
2019-04-10T20:03:15.799Z,56.40
2019-04-10T20:05:44.284Z,54.88
2019-04-10T20:08:13.219Z,53.33
2019-04-10T20:10:41.691Z,49.30
2019-04-10T20:13:10.145Z,55.92
2019-04-10T20:15:38.642Z,52.23
2019-04-10T20:18:07.070Z,59.77
2019-04-10T20:20:37.484Z,53.65
2019-04-10T20:23:06.950Z,57.90
2019-04-10T20:25:36.573Z,57.05
2019-04-10T20:28:05.252Z,58.30
2019-04-10T20:30:34.965Z,52.65
2019-04-10T20:33:03.634Z,57.27
2019-04-10T20:35:32.114Z,64.00
2019-04-10T20:38:01.042Z,60.15
2019-04-10T20:40:29.770Z,62.00
2019-04-10T20:42:58.436Z,58.10
2019-04-10T20:45:27.355Z,63.60
2019-04-10T20:47:56.146Z,54.40
2019-04-10T20:50:25.902Z,59.33
2019-04-10T20:52:55.722Z,62.67
2019-04-10T20:55:24.319Z,62.38
2019-04-10T20:57:52.740Z,69.80
2019-04-10T21:00:22.889Z,62.78
2019-04-10T21:02:51.317Z,58.25
2019-04-10T21:05:20.338Z,67.92
2019-04-10T21:07:48.746Z,63.92
2019-04-10T21:10:17.189Z,65.25
2019-04-10T21:12:45.664Z,64.67
2019-04-10T21:15:14.249Z,62.60
2019-04-10T21:17:42.746Z,62.13
2019-04-10T21:20:13.213Z,60.88
2019-04-10T21:22:41.449Z,61.77
2019-04-10T21:25:10.349Z,62.70
2019-04-10T21:27:39.766Z,59.70
2019-04-10T21:30:28.378Z,66.43
2019-04-10T21:33:10.395Z,62.93
2019-04-10T21:35:41.540Z,66.10
2019-04-10T21:38:10.925Z,61.65
2019-04-10T21:40:39.594Z,61.85
2019-04-10T21:43:08.016Z,66.97
2019-04-10T21:45:36.430Z,65.62
2019-04-10T21:48:04.924Z,64.27
2019-04-10T21:50:33.378Z,60.03
2019-04-10T21:53:01.806Z,66.67
2019-04-10T21:55:31.145Z,62.88
2019-04-10T21:57:59.721Z,65.05
2019-04-10T22:00:36.695Z,61.00
2019-04-10T22:03:05.342Z,61.73
2019-04-10T22:05:36.624Z,63.52
2019-04-10T22:08:21.793Z,53.87
2019-04-10T22:10:52.285Z,58.40
2019-04-10T22:13:21.847Z,68.45
2019-04-10T22:15:50.414Z,65.80
2019-04-10T22:18:19.120Z,69.67
2019-04-10T22:20:47.955Z,64.42
2019-04-10T22:23:16.485Z,61.40
2019-04-10T22:25:45.860Z,53.92
2019-04-10T22:28:14.958Z,59.45
2019-04-10T22:30:43.736Z,53.73
2019-04-10T22:33:12.369Z,60.80
2019-04-10T22:35:41.992Z,57.73
2019-04-10T22:38:11.150Z,61.65
2019-04-10T22:40:40.115Z,56.00
2019-04-10T22:43:08.657Z,64.82
2019-04-10T22:45:38.069Z,57.93
2019-04-10T22:48:06.644Z,54.18
2019-04-10T22:50:36.200Z,59.63
2019-04-10T22:53:05.328Z,62.08
2019-04-10T22:55:33.840Z,61.37
2019-04-10T22:58:02.650Z,64.03
2019-04-10T23:00:32.725Z,59.00
2019-04-10T23:03:01.461Z,59.55
2019-04-10T23:05:30.308Z,59.65
2019-04-10T23:07:59.103Z,60.83
2019-04-10T23:10:28.757Z,55.58
2019-04-10T23:13:01.665Z,61.05
2019-04-10T23:15:27.416Z,63.02
2019-04-10T23:17:57.121Z,59.58
2019-04-10T23:20:25.984Z,58.50
2019-04-10T23:22:54.784Z,54.83
2019-04-10T23:25:24.556Z,55.35
2019-04-10T23:27:55.171Z,54.50
2019-04-10T23:30:24.525Z,61.50
2019-04-10T23:32:53.502Z,56.55
2019-04-10T23:35:22.227Z,60.75
2019-04-10T23:37:51.121Z,53.15
2019-04-10T23:40:20.888Z,52.70
2019-04-10T23:43:02.666Z,52.98
2019-04-10T23:45:20.097Z,53.33
2019-04-10T23:47:48.766Z,55.23
2019-04-10T23:50:18.454Z,51.30
2019-04-10T23:52:47.914Z,45.80
2019-04-10T23:55:17.691Z,48.95
2019-04-10T23:57:46.426Z,44.63
